sensor_id;sensor_type;location;lat;lon;timestamp;P1;durP1;ratioP1;P2;durP2;ratioP2
10715;SDS011;5409;42.620;23.316;2023-01-04T00:00:17;7.82;;;6.25;;
10715;SDS011;5409;42.620;23.316;2023-01-04T00:02:44;7.28;;;6.00;;
10715;SDS011;5409;42.620;23.316;2023-01-04T00:05:10;11.77;;;5.90;;
10715;SDS011;5409;42.620;23.316;2023-01-04T00:07:37;6.00;;;5.32;;
10715;SDS011;5409;42.620;23.316;2023-01-04T00:10:03;7.32;;;6.18;;
10715;SDS011;5409;42.620;23.316;2023-01-04T00:12:31;9.23;;;6.20;;
10715;SDS011;5409;42.620;23.316;2023-01-04T00:14:59;8.43;;;5.50;;
10715;SDS011;5409;42.620;23.316;2023-01-04T00:17:25;7.03;;;5.70;;
10715;SDS011;5409;42.620;23.316;2023-01-04T00:19:52;7.43;;;6.05;;
10715;SDS011;5409;42.620;23.316;2023-01-04T00:22:18;9.52;;;6.38;;
10715;SDS011;5409;42.620;23.316;2023-01-04T00:24:45;6.70;;;5.40;;
10715;SDS011;5409;42.620;23.316;2023-01-04T00:27:11;9.38;;;5.93;;
10715;SDS011;5409;42.620;23.316;2023-01-04T00:29:38;8.88;;;5.65;;
10715;SDS011;5409;42.620;23.316;2023-01-04T00:32:05;8.82;;;5.95;;
10715;SDS011;5409;42.620;23.316;2023-01-04T00:34:32;6.70;;;6.00;;
10715;SDS011;5409;42.620;23.316;2023-01-04T00:36:58;7.50;;;5.82;;
10715;SDS011;5409;42.620;23.316;2023-01-04T00:39:25;6.93;;;5.28;;
10715;SDS011;5409;42.620;23.316;2023-01-04T00:41:53;7.53;;;5.63;;
10715;SDS011;5409;42.620;23.316;2023-01-04T00:44:29;7.95;;;5.63;;
10715;SDS011;5409;42.620;23.316;2023-01-04T00:46:56;8.13;;;6.20;;
10715;SDS011;5409;42.620;23.316;2023-01-04T00:49:24;7.35;;;6.00;;
10715;SDS011;5409;42.620;23.316;2023-01-04T00:51:50;8.23;;;6.15;;
10715;SDS011;5409;42.620;23.316;2023-01-04T00:54:17;9.82;;;5.85;;
10715;SDS011;5409;42.620;23.316;2023-01-04T00:56:44;6.97;;;5.93;;
10715;SDS011;5409;42.620;23.316;2023-01-04T00:59:11;7.18;;;5.22;;
10715;SDS011;5409;42.620;23.316;2023-01-04T01:01:38;8.43;;;6.50;;
10715;SDS011;5409;42.620;23.316;2023-01-04T01:04:04;10.32;;;6.63;;
10715;SDS011;5409;42.620;23.316;2023-01-04T01:06:33;10.57;;;5.88;;
10715;SDS011;5409;42.620;23.316;2023-01-04T01:09:00;8.02;;;5.80;;
10715;SDS011;5409;42.620;23.316;2023-01-04T01:11:26;8.93;;;6.50;;
10715;SDS011;5409;42.620;23.316;2023-01-04T01:13:53;7.75;;;6.35;;
10715;SDS011;5409;42.620;23.316;2023-01-04T01:16:20;10.25;;;6.32;;
10715;SDS011;5409;42.620;23.316;2023-01-04T01:18:47;7.15;;;5.55;;
10715;SDS011;5409;42.620;23.316;2023-01-04T01:21:14;9.07;;;6.57;;
10715;SDS011;5409;42.620;23.316;2023-01-04T01:23:42;9.38;;;6.72;;
10715;SDS011;5409;42.620;23.316;2023-01-04T01:26:10;10.95;;;7.38;;
10715;SDS011;5409;42.620;23.316;2023-01-04T01:28:37;12.68;;;7.65;;
10715;SDS011;5409;42.620;23.316;2023-01-04T01:31:04;11.07;;;7.30;;
10715;SDS011;5409;42.620;23.316;2023-01-04T01:33:31;10.13;;;6.53;;
10715;SDS011;5409;42.620;23.316;2023-01-04T01:35:58;10.95;;;6.70;;
10715;SDS011;5409;42.620;23.316;2023-01-04T01:38:25;11.60;;;7.53;;
10715;SDS011;5409;42.620;23.316;2023-01-04T01:40:53;11.60;;;7.55;;
10715;SDS011;5409;42.620;23.316;2023-01-04T01:43:20;10.15;;;6.95;;
10715;SDS011;5409;42.620;23.316;2023-01-04T01:45:47;11.00;;;7.63;;
10715;SDS011;5409;42.620;23.316;2023-01-04T01:48:15;10.38;;;7.25;;
10715;SDS011;5409;42.620;23.316;2023-01-04T01:50:43;12.27;;;7.97;;
10715;SDS011;5409;42.620;23.316;2023-01-04T01:53:13;11.07;;;8.10;;
10715;SDS011;5409;42.620;23.316;2023-01-04T01:55:39;10.13;;;7.15;;
10715;SDS011;5409;42.620;23.316;2023-01-04T01:58:09;10.20;;;8.18;;
10715;SDS011;5409;42.620;23.316;2023-01-04T02:00:38;13.43;;;7.63;;
10715;SDS011;5409;42.620;23.316;2023-01-04T02:03:08;10.57;;;7.55;;
10715;SDS011;5409;42.620;23.316;2023-01-04T02:05:37;11.18;;;7.65;;
10715;SDS011;5409;42.620;23.316;2023-01-04T02:08:04;9.52;;;7.63;;
10715;SDS011;5409;42.620;23.316;2023-01-04T02:10:30;13.25;;;7.93;;
10715;SDS011;5409;42.620;23.316;2023-01-04T02:12:58;9.80;;;7.40;;
10715;SDS011;5409;42.620;23.316;2023-01-04T02:15:26;11.20;;;7.13;;
10715;SDS011;5409;42.620;23.316;2023-01-04T02:17:56;9.80;;;7.60;;
10715;SDS011;5409;42.620;23.316;2023-01-04T02:20:30;10.70;;;7.45;;
10715;SDS011;5409;42.620;23.316;2023-01-04T02:23:07;9.27;;;6.80;;
10715;SDS011;5409;42.620;23.316;2023-01-04T02:28:27;10.05;;;7.65;;
10715;SDS011;5409;42.620;23.316;2023-01-04T02:31:02;10.35;;;7.22;;
10715;SDS011;5409;42.620;23.316;2023-01-04T02:33:40;9.20;;;7.18;;
10715;SDS011;5409;42.620;23.316;2023-01-04T02:36:09;8.70;;;7.50;;
10715;SDS011;5409;42.620;23.316;2023-01-04T02:38:42;8.52;;;6.40;;
10715;SDS011;5409;42.620;23.316;2023-01-04T02:41:12;7.85;;;6.57;;
10715;SDS011;5409;42.620;23.316;2023-01-04T02:43:42;9.88;;;6.25;;
10715;SDS011;5409;42.620;23.316;2023-01-04T02:46:29;6.95;;;5.75;;
10715;SDS011;5409;42.620;23.316;2023-01-04T02:48:58;6.25;;;5.35;;
10715;SDS011;5409;42.620;23.316;2023-01-04T02:51:43;6.32;;;4.97;;
10715;SDS011;5409;42.620;23.316;2023-01-04T02:54:10;6.03;;;5.43;;
10715;SDS011;5409;42.620;23.316;2023-01-04T02:56:48;4.25;;;3.38;;
10715;SDS011;5409;42.620;23.316;2023-01-04T02:59:27;4.55;;;3.25;;
10715;SDS011;5409;42.620;23.316;2023-01-04T03:01:59;6.65;;;4.40;;
10715;SDS011;5409;42.620;23.316;2023-01-04T03:04:48;4.35;;;3.95;;
10715;SDS011;5409;42.620;23.316;2023-01-04T03:07:34;3.70;;;3.28;;
10715;SDS011;5409;42.620;23.316;2023-01-04T03:10:04;5.28;;;4.07;;
10715;SDS011;5409;42.620;23.316;2023-01-04T03:12:32;4.75;;;3.80;;
10715;SDS011;5409;42.620;23.316;2023-01-04T03:15:05;5.80;;;4.93;;
10715;SDS011;5409;42.620;23.316;2023-01-04T03:17:36;8.77;;;5.05;;
10715;SDS011;5409;42.620;23.316;2023-01-04T03:20:04;7.82;;;5.03;;
10715;SDS011;5409;42.620;23.316;2023-01-04T03:22:33;10.32;;;6.85;;
10715;SDS011;5409;42.620;23.316;2023-01-04T03:25:18;11.70;;;8.40;;
10715;SDS011;5409;42.620;23.316;2023-01-04T03:28:04;13.20;;;8.02;;
10715;SDS011;5409;42.620;23.316;2023-01-04T03:30:50;8.73;;;5.95;;
10715;SDS011;5409;42.620;23.316;2023-01-04T03:33:37;12.30;;;8.15;;
10715;SDS011;5409;42.620;23.316;2023-01-04T03:36:31;10.15;;;8.15;;
10715;SDS011;5409;42.620;23.316;2023-01-04T03:39:02;14.07;;;8.95;;
10715;SDS011;5409;42.620;23.316;2023-01-04T03:41:48;13.63;;;9.82;;
10715;SDS011;5409;42.620;23.316;2023-01-04T03:44:36;13.73;;;9.55;;
10715;SDS011;5409;42.620;23.316;2023-01-04T03:47:25;14.48;;;10.50;;
10715;SDS011;5409;42.620;23.316;2023-01-04T03:50:13;15.80;;;10.05;;
10715;SDS011;5409;42.620;23.316;2023-01-04T03:52:42;14.23;;;10.45;;
10715;SDS011;5409;42.620;23.316;2023-01-04T03:55:11;12.52;;;9.20;;
10715;SDS011;5409;42.620;23.316;2023-01-04T03:57:38;14.15;;;9.25;;
10715;SDS011;5409;42.620;23.316;2023-01-04T04:00:07;7.45;;;5.57;;
10715;SDS011;5409;42.620;23.316;2023-01-04T04:02:35;9.52;;;6.93;;
10715;SDS011;5409;42.620;23.316;2023-01-04T04:05:01;8.65;;;6.57;;
10715;SDS011;5409;42.620;23.316;2023-01-04T04:07:46;13.75;;;7.97;;
10715;SDS011;5409;42.620;23.316;2023-01-04T04:10:30;11.55;;;7.30;;
10715;SDS011;5409;42.620;23.316;2023-01-04T04:12:57;7.63;;;6.00;;
10715;SDS011;5409;42.620;23.316;2023-01-04T04:15:23;14.73;;;9.25;;
10715;SDS011;5409;42.620;23.316;2023-01-04T04:17:50;15.38;;;8.35;;
10715;SDS011;5409;42.620;23.316;2023-01-04T04:20:16;7.78;;;6.43;;
10715;SDS011;5409;42.620;23.316;2023-01-04T04:22:43;11.40;;;7.85;;
10715;SDS011;5409;42.620;23.316;2023-01-04T04:25:11;10.07;;;7.50;;
10715;SDS011;5409;42.620;23.316;2023-01-04T04:27:37;14.25;;;8.88;;
10715;SDS011;5409;42.620;23.316;2023-01-04T04:30:04;14.20;;;9.05;;
10715;SDS011;5409;42.620;23.316;2023-01-04T04:32:31;11.40;;;6.32;;
10715;SDS011;5409;42.620;23.316;2023-01-04T04:34:58;17.30;;;8.95;;
10715;SDS011;5409;42.620;23.316;2023-01-04T04:37:24;12.90;;;9.65;;
10715;SDS011;5409;42.620;23.316;2023-01-04T04:39:52;15.93;;;9.10;;
10715;SDS011;5409;42.620;23.316;2023-01-04T04:42:20;9.68;;;7.90;;
10715;SDS011;5409;42.620;23.316;2023-01-04T04:44:46;13.93;;;9.23;;
10715;SDS011;5409;42.620;23.316;2023-01-04T04:47:12;16.33;;;12.52;;
10715;SDS011;5409;42.620;23.316;2023-01-04T04:49:38;13.77;;;9.30;;
10715;SDS011;5409;42.620;23.316;2023-01-04T04:52:05;11.38;;;8.88;;
10715;SDS011;5409;42.620;23.316;2023-01-04T04:54:32;17.88;;;11.90;;
10715;SDS011;5409;42.620;23.316;2023-01-04T04:56:58;16.90;;;11.35;;
10715;SDS011;5409;42.620;23.316;2023-01-04T04:59:26;18.95;;;11.90;;
10715;SDS011;5409;42.620;23.316;2023-01-04T05:01:53;11.00;;;7.85;;
10715;SDS011;5409;42.620;23.316;2023-01-04T05:04:19;14.35;;;10.70;;
10715;SDS011;5409;42.620;23.316;2023-01-04T05:06:46;16.05;;;11.30;;
10715;SDS011;5409;42.620;23.316;2023-01-04T05:09:13;16.92;;;11.25;;
10715;SDS011;5409;42.620;23.316;2023-01-04T05:11:40;28.05;;;14.88;;
10715;SDS011;5409;42.620;23.316;2023-01-04T05:14:24;28.70;;;15.20;;
10715;SDS011;5409;42.620;23.316;2023-01-04T05:16:52;21.80;;;14.00;;
10715;SDS011;5409;42.620;23.316;2023-01-04T05:19:19;24.30;;;14.00;;
10715;SDS011;5409;42.620;23.316;2023-01-04T05:21:45;18.75;;;13.20;;
10715;SDS011;5409;42.620;23.316;2023-01-04T05:24:12;20.75;;;13.95;;
10715;SDS011;5409;42.620;23.316;2023-01-04T05:26:39;24.77;;;14.65;;
10715;SDS011;5409;42.620;23.316;2023-01-04T05:29:05;21.67;;;12.43;;
10715;SDS011;5409;42.620;23.316;2023-01-04T05:31:53;20.85;;;13.90;;
10715;SDS011;5409;42.620;23.316;2023-01-04T05:34:18;23.88;;;14.40;;
10715;SDS011;5409;42.620;23.316;2023-01-04T05:36:45;21.58;;;12.63;;
10715;SDS011;5409;42.620;23.316;2023-01-04T05:39:11;21.83;;;14.63;;
10715;SDS011;5409;42.620;23.316;2023-01-04T05:41:38;25.88;;;15.13;;
10715;SDS011;5409;42.620;23.316;2023-01-04T05:44:24;23.10;;;13.98;;
10715;SDS011;5409;42.620;23.316;2023-01-04T05:46:50;23.95;;;17.02;;
10715;SDS011;5409;42.620;23.316;2023-01-04T05:49:18;22.52;;;15.73;;
10715;SDS011;5409;42.620;23.316;2023-01-04T05:51:45;26.23;;;15.95;;
10715;SDS011;5409;42.620;23.316;2023-01-04T05:54:11;21.05;;;11.77;;
10715;SDS011;5409;42.620;23.316;2023-01-04T05:56:38;16.80;;;11.30;;
10715;SDS011;5409;42.620;23.316;2023-01-04T05:59:04;13.70;;;10.73;;
10715;SDS011;5409;42.620;23.316;2023-01-04T06:01:31;16.70;;;12.57;;
10715;SDS011;5409;42.620;23.316;2023-01-04T06:03:57;15.13;;;10.70;;
10715;SDS011;5409;42.620;23.316;2023-01-04T06:06:25;15.15;;;10.75;;
10715;SDS011;5409;42.620;23.316;2023-01-04T06:08:52;18.17;;;11.82;;
10715;SDS011;5409;42.620;23.316;2023-01-04T06:11:18;14.20;;;10.30;;
10715;SDS011;5409;42.620;23.316;2023-01-04T06:13:45;14.73;;;10.38;;
10715;SDS011;5409;42.620;23.316;2023-01-04T06:16:11;17.40;;;9.68;;
10715;SDS011;5409;42.620;23.316;2023-01-04T06:18:38;12.63;;;9.00;;
10715;SDS011;5409;42.620;23.316;2023-01-04T06:21:04;12.27;;;9.23;;
10715;SDS011;5409;42.620;23.316;2023-01-04T06:23:32;12.13;;;8.63;;
10715;SDS011;5409;42.620;23.316;2023-01-04T06:25:59;11.90;;;8.77;;
10715;SDS011;5409;42.620;23.316;2023-01-04T06:28:25;12.65;;;7.60;;
10715;SDS011;5409;42.620;23.316;2023-01-04T06:30:52;11.07;;;6.70;;
10715;SDS011;5409;42.620;23.316;2023-01-04T06:33:18;9.88;;;7.00;;
10715;SDS011;5409;42.620;23.316;2023-01-04T06:35:51;11.45;;;6.72;;
10715;SDS011;5409;42.620;23.316;2023-01-04T06:38:18;12.18;;;7.55;;
10715;SDS011;5409;42.620;23.316;2023-01-04T06:40:46;9.77;;;6.88;;
10715;SDS011;5409;42.620;23.316;2023-01-04T06:43:12;8.82;;;6.72;;
10715;SDS011;5409;42.620;23.316;2023-01-04T06:45:39;7.53;;;6.25;;
10715;SDS011;5409;42.620;23.316;2023-01-04T06:48:06;8.45;;;6.15;;
10715;SDS011;5409;42.620;23.316;2023-01-04T06:50:33;10.73;;;6.40;;
10715;SDS011;5409;42.620;23.316;2023-01-04T06:53:00;8.95;;;6.90;;
10715;SDS011;5409;42.620;23.316;2023-01-04T06:55:26;8.95;;;6.88;;
10715;SDS011;5409;42.620;23.316;2023-01-04T06:57:55;9.20;;;6.18;;
10715;SDS011;5409;42.620;23.316;2023-01-04T07:00:21;9.25;;;6.68;;
10715;SDS011;5409;42.620;23.316;2023-01-04T07:02:48;8.63;;;6.50;;
10715;SDS011;5409;42.620;23.316;2023-01-04T07:05:15;9.02;;;6.82;;
10715;SDS011;5409;42.620;23.316;2023-01-04T07:07:41;9.20;;;6.03;;
10715;SDS011;5409;42.620;23.316;2023-01-04T07:10:08;10.77;;;6.55;;
10715;SDS011;5409;42.620;23.316;2023-01-04T07:12:35;9.25;;;6.57;;
10715;SDS011;5409;42.620;23.316;2023-01-04T07:15:03;7.88;;;6.55;;
10715;SDS011;5409;42.620;23.316;2023-01-04T07:17:30;9.38;;;7.20;;
10715;SDS011;5409;42.620;23.316;2023-01-04T07:19:56;12.40;;;6.85;;
10715;SDS011;5409;42.620;23.316;2023-01-04T07:22:23;9.05;;;7.57;;
10715;SDS011;5409;42.620;23.316;2023-01-04T07:24:49;8.20;;;6.43;;
10715;SDS011;5409;42.620;23.316;2023-01-04T07:27:16;9.90;;;7.75;;
10715;SDS011;5409;42.620;23.316;2023-01-04T07:29:42;9.25;;;7.22;;
10715;SDS011;5409;42.620;23.316;2023-01-04T07:32:10;7.43;;;5.65;;
10715;SDS011;5409;42.620;23.316;2023-01-04T07:34:37;8.13;;;6.45;;
10715;SDS011;5409;42.620;23.316;2023-01-04T07:37:04;9.05;;;6.65;;
10715;SDS011;5409;42.620;23.316;2023-01-04T07:39:30;11.38;;;7.57;;
10715;SDS011;5409;42.620;23.316;2023-01-04T07:41:57;9.48;;;7.03;;
10715;SDS011;5409;42.620;23.316;2023-01-04T07:44:23;9.13;;;6.60;;
10715;SDS011;5409;42.620;23.316;2023-01-04T07:46:52;12.63;;;7.85;;
10715;SDS011;5409;42.620;23.316;2023-01-04T07:49:20;10.38;;;8.05;;
10715;SDS011;5409;42.620;23.316;2023-01-04T07:51:46;11.35;;;8.60;;
10715;SDS011;5409;42.620;23.316;2023-01-04T07:54:13;14.40;;;8.38;;
10715;SDS011;5409;42.620;23.316;2023-01-04T07:56:40;12.43;;;9.63;;
10715;SDS011;5409;42.620;23.316;2023-01-04T07:59:07;11.48;;;9.05;;
10715;SDS011;5409;42.620;23.316;2023-01-04T08:01:34;11.80;;;9.25;;
10715;SDS011;5409;42.620;23.316;2023-01-04T08:04:02;11.02;;;9.02;;
10715;SDS011;5409;42.620;23.316;2023-01-04T08:06:31;12.63;;;9.05;;
10715;SDS011;5409;42.620;23.316;2023-01-04T08:08:58;12.80;;;8.88;;
10715;SDS011;5409;42.620;23.316;2023-01-04T08:11:24;15.23;;;10.63;;
10715;SDS011;5409;42.620;23.316;2023-01-04T08:13:51;16.20;;;10.30;;
10715;SDS011;5409;42.620;23.316;2023-01-04T08:16:19;18.90;;;10.35;;
10715;SDS011;5409;42.620;23.316;2023-01-04T08:18:46;15.50;;;9.60;;
10715;SDS011;5409;42.620;23.316;2023-01-04T08:21:12;18.92;;;10.65;;
10715;SDS011;5409;42.620;23.316;2023-01-04T08:23:40;15.68;;;10.57;;
10715;SDS011;5409;42.620;23.316;2023-01-04T08:26:07;17.70;;;10.30;;
10715;SDS011;5409;42.620;23.316;2023-01-04T08:28:34;16.17;;;10.80;;
10715;SDS011;5409;42.620;23.316;2023-01-04T08:31:02;16.95;;;11.05;;
10715;SDS011;5409;42.620;23.316;2023-01-04T08:33:29;14.73;;;10.25;;
10715;SDS011;5409;42.620;23.316;2023-01-04T08:36:05;14.85;;;10.65;;
10715;SDS011;5409;42.620;23.316;2023-01-04T08:38:31;13.98;;;9.07;;
10715;SDS011;5409;42.620;23.316;2023-01-04T08:40:59;12.65;;;9.30;;
10715;SDS011;5409;42.620;23.316;2023-01-04T08:43:26;18.05;;;10.73;;
10715;SDS011;5409;42.620;23.316;2023-01-04T08:45:52;17.08;;;11.18;;
10715;SDS011;5409;42.620;23.316;2023-01-04T08:48:19;15.10;;;10.30;;
10715;SDS011;5409;42.620;23.316;2023-01-04T08:50:45;15.40;;;10.80;;
10715;SDS011;5409;42.620;23.316;2023-01-04T08:53:12;14.95;;;9.82;;
10715;SDS011;5409;42.620;23.316;2023-01-04T08:55:38;16.38;;;9.88;;
10715;SDS011;5409;42.620;23.316;2023-01-04T08:58:06;17.80;;;10.75;;
10715;SDS011;5409;42.620;23.316;2023-01-04T09:00:33;17.92;;;11.07;;
10715;SDS011;5409;42.620;23.316;2023-01-04T09:02:59;12.63;;;9.35;;
10715;SDS011;5409;42.620;23.316;2023-01-04T09:05:26;13.50;;;10.50;;
10715;SDS011;5409;42.620;23.316;2023-01-04T09:07:52;17.65;;;11.98;;
10715;SDS011;5409;42.620;23.316;2023-01-04T09:10:19;17.08;;;11.13;;
10715;SDS011;5409;42.620;23.316;2023-01-04T09:12:46;14.30;;;11.20;;
10715;SDS011;5409;42.620;23.316;2023-01-04T09:15:13;19.50;;;11.75;;
10715;SDS011;5409;42.620;23.316;2023-01-04T09:17:41;13.45;;;9.68;;
10715;SDS011;5409;42.620;23.316;2023-01-04T09:20:08;13.82;;;10.25;;
10715;SDS011;5409;42.620;23.316;2023-01-04T09:22:34;15.25;;;10.23;;
10715;SDS011;5409;42.620;23.316;2023-01-04T09:25:01;13.90;;;10.52;;
10715;SDS011;5409;42.620;23.316;2023-01-04T09:27:29;14.85;;;9.82;;
10715;SDS011;5409;42.620;23.316;2023-01-04T09:29:56;14.48;;;10.25;;
10715;SDS011;5409;42.620;23.316;2023-01-04T09:32:24;12.85;;;10.10;;
10715;SDS011;5409;42.620;23.316;2023-01-04T09:34:51;16.42;;;10.52;;
10715;SDS011;5409;42.620;23.316;2023-01-04T09:37:17;15.98;;;11.18;;
10715;SDS011;5409;42.620;23.316;2023-01-04T09:39:44;15.35;;;11.65;;
10715;SDS011;5409;42.620;23.316;2023-01-04T09:42:15;16.33;;;11.18;;
10715;SDS011;5409;42.620;23.316;2023-01-04T09:44:42;13.57;;;9.90;;
10715;SDS011;5409;42.620;23.316;2023-01-04T09:47:11;12.98;;;9.57;;
10715;SDS011;5409;42.620;23.316;2023-01-04T09:49:43;15.38;;;9.95;;
10715;SDS011;5409;42.620;23.316;2023-01-04T09:52:14;14.73;;;10.88;;
10715;SDS011;5409;42.620;23.316;2023-01-04T09:54:44;14.40;;;9.07;;
10715;SDS011;5409;42.620;23.316;2023-01-04T09:57:14;14.43;;;10.20;;
10715;SDS011;5409;42.620;23.316;2023-01-04T09:59:42;11.23;;;9.18;;
10715;SDS011;5409;42.620;23.316;2023-01-04T10:02:10;16.60;;;12.10;;
10715;SDS011;5409;42.620;23.316;2023-01-04T10:04:40;15.77;;;11.82;;
10715;SDS011;5409;42.620;23.316;2023-01-04T10:07:12;14.68;;;10.43;;
10715;SDS011;5409;42.620;23.316;2023-01-04T10:09:42;13.15;;;9.10;;
10715;SDS011;5409;42.620;23.316;2023-01-04T10:12:12;13.15;;;9.32;;
10715;SDS011;5409;42.620;23.316;2023-01-04T10:17:30;12.02;;;9.60;;
10715;SDS011;5409;42.620;23.316;2023-01-04T10:20:02;16.55;;;10.63;;
10715;SDS011;5409;42.620;23.316;2023-01-04T10:22:33;14.30;;;10.07;;
10715;SDS011;5409;42.620;23.316;2023-01-04T10:25:06;14.00;;;8.55;;
10715;SDS011;5409;42.620;23.316;2023-01-04T10:27:37;10.32;;;7.88;;
10715;SDS011;5409;42.620;23.316;2023-01-04T10:30:13;12.20;;;9.23;;
10715;SDS011;5409;42.620;23.316;2023-01-04T10:32:43;15.57;;;9.60;;
10715;SDS011;5409;42.620;23.316;2023-01-04T10:35:14;16.38;;;9.60;;
10715;SDS011;5409;42.620;23.316;2023-01-04T10:37:43;12.05;;;8.45;;
10715;SDS011;5409;42.620;23.316;2023-01-04T10:40:11;11.57;;;8.40;;
10715;SDS011;5409;42.620;23.316;2023-01-04T10:42:39;12.00;;;8.43;;
10715;SDS011;5409;42.620;23.316;2023-01-04T10:45:10;11.07;;;8.43;;
10715;SDS011;5409;42.620;23.316;2023-01-04T10:47:41;12.70;;;8.50;;
10715;SDS011;5409;42.620;23.316;2023-01-04T10:50:10;13.15;;;8.10;;
10715;SDS011;5409;42.620;23.316;2023-01-04T10:52:41;10.98;;;7.97;;
10715;SDS011;5409;42.620;23.316;2023-01-04T10:55:11;22.77;;;12.38;;
10715;SDS011;5409;42.620;23.316;2023-01-04T10:57:41;10.18;;;7.95;;
10715;SDS011;5409;42.620;23.316;2023-01-04T11:00:10;9.68;;;7.85;;
10715;SDS011;5409;42.620;23.316;2023-01-04T11:02:39;11.50;;;7.07;;
10715;SDS011;5409;42.620;23.316;2023-01-04T11:05:09;10.07;;;7.35;;
10715;SDS011;5409;42.620;23.316;2023-01-04T11:07:38;15.77;;;8.93;;
10715;SDS011;5409;42.620;23.316;2023-01-04T11:10:06;10.30;;;7.70;;
10715;SDS011;5409;42.620;23.316;2023-01-04T11:12:35;13.20;;;9.00;;
10715;SDS011;5409;42.620;23.316;2023-01-04T11:15:02;11.00;;;8.40;;
10715;SDS011;5409;42.620;23.316;2023-01-04T11:17:29;12.52;;;9.30;;
10715;SDS011;5409;42.620;23.316;2023-01-04T11:19:56;12.73;;;8.70;;
10715;SDS011;5409;42.620;23.316;2023-01-04T11:22:23;11.98;;;8.27;;
10715;SDS011;5409;42.620;23.316;2023-01-04T11:24:52;14.40;;;8.38;;
10715;SDS011;5409;42.620;23.316;2023-01-04T11:27:21;11.90;;;9.23;;
10715;SDS011;5409;42.620;23.316;2023-01-04T11:29:51;14.70;;;8.77;;
10715;SDS011;5409;42.620;23.316;2023-01-04T11:32:23;13.32;;;9.30;;
10715;SDS011;5409;42.620;23.316;2023-01-04T11:34:53;14.57;;;10.52;;
10715;SDS011;5409;42.620;23.316;2023-01-04T11:37:22;17.02;;;10.95;;
10715;SDS011;5409;42.620;23.316;2023-01-04T11:39:49;16.65;;;9.95;;
10715;SDS011;5409;42.620;23.316;2023-01-04T11:42:17;15.32;;;10.45;;
10715;SDS011;5409;42.620;23.316;2023-01-04T11:44:45;17.10;;;10.15;;
10715;SDS011;5409;42.620;23.316;2023-01-04T11:47:23;15.30;;;10.30;;
10715;SDS011;5409;42.620;23.316;2023-01-04T11:49:52;15.50;;;10.65;;
10715;SDS011;5409;42.620;23.316;2023-01-04T11:52:27;10.80;;;8.73;;
10715;SDS011;5409;42.620;23.316;2023-01-04T11:54:54;15.63;;;9.85;;
10715;SDS011;5409;42.620;23.316;2023-01-04T11:57:20;9.48;;;6.85;;
10715;SDS011;5409;42.620;23.316;2023-01-04T11:59:48;13.02;;;7.85;;
10715;SDS011;5409;42.620;23.316;2023-01-04T12:02:33;9.35;;;7.30;;
10715;SDS011;5409;42.620;23.316;2023-01-04T12:05:00;10.20;;;7.25;;
10715;SDS011;5409;42.620;23.316;2023-01-04T12:07:28;9.65;;;7.93;;
10715;SDS011;5409;42.620;23.316;2023-01-04T12:09:55;12.90;;;8.05;;
10715;SDS011;5409;42.620;23.316;2023-01-04T12:12:23;11.52;;;7.55;;
10715;SDS011;5409;42.620;23.316;2023-01-04T12:14:50;7.50;;;6.45;;
10715;SDS011;5409;42.620;23.316;2023-01-04T12:17:17;9.50;;;7.00;;
10715;SDS011;5409;42.620;23.316;2023-01-04T12:19:48;9.65;;;7.35;;
10715;SDS011;5409;42.620;23.316;2023-01-04T12:22:17;10.70;;;7.53;;
10715;SDS011;5409;42.620;23.316;2023-01-04T12:24:45;8.70;;;6.55;;
10715;SDS011;5409;42.620;23.316;2023-01-04T12:27:12;10.45;;;6.72;;
10715;SDS011;5409;42.620;23.316;2023-01-04T12:35:00;9.82;;;6.25;;
10715;SDS011;5409;42.620;23.316;2023-01-04T12:37:43;8.68;;;6.63;;
10715;SDS011;5409;42.620;23.316;2023-01-04T12:45:48;8.10;;;6.25;;
10715;SDS011;5409;42.620;23.316;2023-01-04T12:48:55;9.52;;;6.53;;
10715;SDS011;5409;42.620;23.316;2023-01-04T12:51:31;7.75;;;6.40;;
10715;SDS011;5409;42.620;23.316;2023-01-04T12:53:58;11.90;;;7.15;;
10715;SDS011;5409;42.620;23.316;2023-01-04T12:59:10;11.27;;;8.65;;
10715;SDS011;5409;42.620;23.316;2023-01-04T13:01:38;13.68;;;9.25;;
10715;SDS011;5409;42.620;23.316;2023-01-04T13:06:51;11.68;;;8.63;;
10715;SDS011;5409;42.620;23.316;2023-01-04T13:09:18;12.93;;;9.23;;
10715;SDS011;5409;42.620;23.316;2023-01-04T13:14:42;9.15;;;7.32;;
10715;SDS011;5409;42.620;23.316;2023-01-04T13:17:19;9.80;;;7.80;;
10715;SDS011;5409;42.620;23.316;2023-01-04T13:19:46;11.15;;;7.72;;
10715;SDS011;5409;42.620;23.316;2023-01-04T13:22:18;9.30;;;7.88;;
10715;SDS011;5409;42.620;23.316;2023-01-04T13:24:45;10.57;;;7.28;;
10715;SDS011;5409;42.620;23.316;2023-01-04T13:27:13;12.13;;;8.52;;
10715;SDS011;5409;42.620;23.316;2023-01-04T13:29:40;14.95;;;10.07;;
10715;SDS011;5409;42.620;23.316;2023-01-04T13:32:08;14.48;;;10.38;;
10715;SDS011;5409;42.620;23.316;2023-01-04T13:34:36;12.82;;;9.60;;
10715;SDS011;5409;42.620;23.316;2023-01-04T13:37:05;11.77;;;9.48;;
10715;SDS011;5409;42.620;23.316;2023-01-04T13:39:33;14.00;;;8.68;;
10715;SDS011;5409;42.620;23.316;2023-01-04T13:42:00;11.75;;;8.75;;
10715;SDS011;5409;42.620;23.316;2023-01-04T13:47:12;10.63;;;7.82;;
10715;SDS011;5409;42.620;23.316;2023-01-04T13:49:39;12.70;;;9.05;;
10715;SDS011;5409;42.620;23.316;2023-01-04T13:52:12;13.65;;;9.02;;
10715;SDS011;5409;42.620;23.316;2023-01-04T13:54:40;16.92;;;11.68;;
10715;SDS011;5409;42.620;23.316;2023-01-04T13:57:07;18.13;;;11.65;;
10715;SDS011;5409;42.620;23.316;2023-01-04T13:59:34;18.50;;;10.65;;
10715;SDS011;5409;42.620;23.316;2023-01-04T14:02:01;16.58;;;11.00;;
10715;SDS011;5409;42.620;23.316;2023-01-04T14:04:28;13.70;;;10.07;;
10715;SDS011;5409;42.620;23.316;2023-01-04T14:06:56;14.30;;;9.13;;
10715;SDS011;5409;42.620;23.316;2023-01-04T14:09:24;14.15;;;10.05;;
10715;SDS011;5409;42.620;23.316;2023-01-04T14:11:53;16.73;;;10.27;;
10715;SDS011;5409;42.620;23.316;2023-01-04T14:14:33;14.23;;;10.07;;
10715;SDS011;5409;42.620;23.316;2023-01-04T14:17:07;14.20;;;10.32;;
10715;SDS011;5409;42.620;23.316;2023-01-04T14:19:42;14.85;;;9.93;;
10715;SDS011;5409;42.620;23.316;2023-01-04T14:22:24;13.45;;;9.77;;
10715;SDS011;5409;42.620;23.316;2023-01-04T14:24:51;13.25;;;9.02;;
10715;SDS011;5409;42.620;23.316;2023-01-04T14:27:29;13.90;;;9.35;;
10715;SDS011;5409;42.620;23.316;2023-01-04T14:29:56;14.32;;;9.25;;
10715;SDS011;5409;42.620;23.316;2023-01-04T14:32:22;13.82;;;10.40;;
10715;SDS011;5409;42.620;23.316;2023-01-04T14:34:49;12.73;;;9.18;;
10715;SDS011;5409;42.620;23.316;2023-01-04T14:37:16;13.13;;;9.32;;
10715;SDS011;5409;42.620;23.316;2023-01-04T14:39:42;13.82;;;9.60;;
10715;SDS011;5409;42.620;23.316;2023-01-04T14:42:20;16.67;;;10.75;;
10715;SDS011;5409;42.620;23.316;2023-01-04T14:44:49;14.55;;;9.85;;
10715;SDS011;5409;42.620;23.316;2023-01-04T14:47:16;16.00;;;9.60;;
10715;SDS011;5409;42.620;23.316;2023-01-04T14:49:43;14.20;;;9.90;;
10715;SDS011;5409;42.620;23.316;2023-01-04T14:52:10;17.67;;;10.73;;
10715;SDS011;5409;42.620;23.316;2023-01-04T14:54:37;13.73;;;10.88;;
10715;SDS011;5409;42.620;23.316;2023-01-04T14:57:04;17.50;;;10.93;;
10715;SDS011;5409;42.620;23.316;2023-01-04T14:59:30;13.60;;;10.77;;
10715;SDS011;5409;42.620;23.316;2023-01-04T15:01:58;16.27;;;10.57;;
10715;SDS011;5409;42.620;23.316;2023-01-04T15:04:25;18.58;;;11.57;;
10715;SDS011;5409;42.620;23.316;2023-01-04T15:06:52;19.70;;;12.73;;
10715;SDS011;5409;42.620;23.316;2023-01-04T15:09:19;22.67;;;12.88;;
10715;SDS011;5409;42.620;23.316;2023-01-04T15:11:46;19.77;;;12.55;;